Fontainebleau, Mississippi
Current Conditions -  °F | °C
As of 9:58 AM on Friday 24 Oct 2014 (Local Time) from KBIX Reporting Station
Clear Clear  
Wind Chill: 64°   Ceiling: Unl
Heat Index: 64°   Visibility: 10mi
Dew Point: 50°   Wind: 5mph
Humidity: 61%   Direction: 20°NNE
Pressure: 30.11"   Gusts: NA
Location:  30.418°N, 88.7558°W
Report Text: KBIX 241458Z AUTO 02004KT 10SM CLR 18/10 A3011 RMK AO2 SLP199 T01760099 52009
Loading
Personal Weather Stations






























Interactive Weather Map
Tropical Storm Tracking
New forecast layout! Learn more

10-Day Weather Forecast

Advertisements
Track Severe Weather on mobile